createdAt,value
2018-08-13T00:00:12.266Z,51.72
2018-08-13T00:01:12.234Z,52.11
2018-08-13T00:02:12.226Z,52.20
2018-08-13T00:03:12.213Z,51.82
2018-08-13T00:04:12.202Z,52.01
2018-08-13T00:05:12.205Z,52.01
2018-08-13T00:06:12.188Z,51.92
2018-08-13T00:07:12.162Z,51.72
2018-08-13T00:08:12.153Z,51.82
2018-08-13T00:09:12.142Z,51.92
2018-08-13T00:10:12.132Z,52.42
2018-08-13T00:11:12.127Z,52.11
2018-08-13T00:12:12.101Z,51.92
2018-08-13T00:13:12.095Z,51.53
2018-08-13T00:14:12.077Z,52.04
2018-08-13T00:15:12.067Z,51.62
2018-08-13T00:16:12.074Z,51.46
2018-08-13T00:17:12.061Z,52.30
2018-08-13T00:18:12.046Z,52.69
2018-08-13T00:19:12.026Z,52.69
2018-08-13T00:20:12.010Z,52.20
2018-08-13T00:21:12.001Z,52.40
2018-08-13T00:22:12.006Z,52.40
2018-08-13T00:23:11.978Z,52.49
2018-08-13T00:24:11.974Z,52.69
2018-08-13T00:25:11.953Z,52.49
2018-08-13T00:26:11.939Z,52.87
2018-08-13T00:27:11.945Z,53.36
2018-08-13T00:28:11.914Z,53.65
2018-08-13T00:29:11.911Z,53.45
2018-08-13T00:30:11.894Z,53.45
2018-08-13T00:31:11.876Z,53.45
2018-08-13T00:32:12.161Z,53.27
2018-08-13T00:33:11.995Z,53.55
2018-08-13T00:34:11.841Z,53.65
2018-08-13T00:35:11.837Z,53.36
2018-08-13T00:36:11.820Z,53.36
2018-08-13T00:37:11.826Z,53.65
2018-08-13T00:38:11.811Z,54.61
2018-08-13T00:39:11.786Z,54.42
2018-08-13T00:40:12.439Z,54.32
2018-08-13T00:41:11.856Z,54.71
2018-08-13T00:42:11.847Z,54.90
2018-08-13T00:43:11.802Z,55.48
2018-08-13T00:44:11.736Z,55.19
2018-08-13T00:45:11.719Z,55.55
2018-08-13T00:46:11.701Z,55.55
2018-08-13T00:47:32.711Z,55.74
2018-08-13T00:48:11.683Z,55.74
2018-08-13T00:49:11.677Z,55.93
2018-08-13T00:50:11.658Z,56.03
2018-08-13T00:51:11.676Z,56.41
2018-08-13T00:52:11.630Z,56.41
2018-08-13T00:53:11.617Z,57.28
2018-08-13T00:54:11.627Z,56.80
2018-08-13T00:55:11.590Z,56.99
2018-08-13T00:56:11.582Z,57.57
2018-08-13T00:57:11.572Z,57.57
2018-08-13T00:58:11.564Z,57.47
2018-08-13T00:59:11.543Z,57.67
2018-08-13T01:00:11.554Z,57.47
2018-08-13T01:01:11.524Z,57.86
2018-08-13T01:02:11.517Z,58.53
2018-08-13T01:03:11.514Z,58.72
2018-08-13T01:04:11.483Z,58.89
2018-08-13T01:05:11.473Z,58.79
2018-08-13T01:06:11.474Z,58.50
2018-08-13T01:07:11.457Z,58.70
2018-08-13T01:08:11.464Z,58.63
2018-08-13T01:09:11.424Z,58.82
2018-08-13T01:10:11.408Z,59.30
2018-08-13T01:11:11.402Z,58.98
2018-08-13T01:12:11.388Z,59.08
2018-08-13T01:13:11.398Z,59.75
2018-08-13T01:14:11.362Z,59.17
2018-08-13T01:15:11.350Z,59.56
2018-08-13T01:16:11.356Z,59.85
2018-08-13T01:17:11.347Z,60.14
2018-08-13T01:18:11.335Z,60.14
2018-08-13T01:19:11.301Z,60.33
2018-08-13T01:20:11.295Z,59.85
2018-08-13T01:21:11.280Z,60.24
2018-08-13T01:22:11.286Z,60.14
2018-08-13T01:23:11.265Z,60.24
2018-08-13T01:24:11.261Z,60.72
2018-08-13T01:25:11.237Z,60.72
2018-08-13T01:26:11.221Z,61.19
2018-08-13T01:27:11.221Z,61.29
2018-08-13T01:28:11.211Z,61.39
2018-08-13T01:29:11.182Z,61.00
2018-08-13T01:30:11.175Z,61.19
2018-08-13T01:31:11.158Z,61.19
2018-08-13T01:32:11.161Z,61.19
2018-08-13T01:33:11.137Z,61.19
2018-08-13T01:34:11.127Z,61.19
2018-08-13T01:35:11.110Z,61.19
2018-08-13T01:36:11.097Z,61.49
2018-08-13T01:37:11.106Z,61.39
2018-08-13T01:38:11.086Z,61.19
2018-08-13T01:39:11.064Z,62.06
2018-08-13T01:40:11.064Z,62.54
2018-08-13T01:41:11.042Z,62.45
2018-08-13T01:42:11.041Z,61.97
2018-08-13T01:43:11.018Z,61.77
2018-08-13T01:44:11.000Z,61.97
2018-08-13T01:45:10.989Z,61.87
2018-08-13T01:46:10.995Z,62.45
2018-08-13T01:47:10.968Z,62.26
2018-08-13T01:48:10.958Z,62.54
2018-08-13T01:49:10.945Z,62.54
2018-08-13T01:50:10.927Z,62.45
2018-08-13T01:51:10.940Z,62.45
2018-08-13T01:52:10.908Z,62.54
2018-08-13T01:53:10.896Z,62.64
2018-08-13T01:54:10.905Z,63.02
2018-08-13T01:55:10.864Z,62.99
2018-08-13T01:56:10.857Z,62.61
2018-08-13T01:57:10.860Z,62.93
2018-08-13T01:58:10.829Z,62.74
2018-08-13T01:59:10.842Z,62.93
2018-08-13T02:00:10.804Z,62.74
2018-08-13T02:01:10.804Z,62.83
2018-08-13T02:02:10.779Z,62.64
2018-08-13T02:03:10.773Z,63.12
2018-08-13T02:04:10.763Z,63.12
2018-08-13T02:05:10.767Z,62.74
2018-08-13T02:06:10.739Z,62.74
2018-08-13T02:07:10.729Z,62.83
2018-08-13T02:08:10.712Z,63.22
2018-08-13T02:09:10.699Z,62.16
2018-08-13T02:10:10.688Z,62.64
2018-08-13T02:11:10.704Z,62.74
2018-08-13T02:12:10.659Z,62.74
2018-08-13T02:13:10.654Z,63.31
2018-08-13T02:14:10.635Z,63.22
2018-08-13T02:15:10.627Z,62.54
2018-08-13T02:16:10.618Z,62.74
2018-08-13T02:17:10.637Z,62.74
2018-08-13T02:18:10.589Z,62.54
2018-08-13T02:19:10.571Z,62.26
2018-08-13T02:20:10.559Z,62.26
2018-08-13T02:21:10.551Z,62.16
2018-08-13T02:22:10.538Z,62.83
2018-08-13T02:23:10.544Z,62.64
2018-08-13T02:24:10.521Z,62.64
2018-08-13T02:25:10.503Z,62.74
2018-08-13T02:26:10.492Z,63.12
2018-08-13T02:27:10.487Z,62.74
2018-08-13T02:28:10.467Z,62.45
2018-08-13T02:29:10.483Z,63.41
2018-08-13T02:30:10.450Z,63.12
2018-08-13T02:31:10.425Z,63.51
2018-08-13T02:32:31.429Z,63.02
2018-08-13T02:33:10.409Z,62.74
2018-08-13T02:34:10.419Z,62.45
2018-08-13T02:35:10.386Z,63.31
2018-08-13T02:36:10.365Z,63.51
2018-08-13T02:37:10.356Z,62.74
2018-08-13T02:38:10.367Z,63.12
2018-08-13T02:39:10.391Z,62.35
2018-08-13T02:40:10.330Z,62.16
2018-08-13T02:41:10.304Z,62.35
2018-08-13T02:42:10.300Z,62.35
2018-08-13T02:43:10.281Z,62.35
2018-08-13T02:44:10.303Z,62.35
2018-08-13T02:45:10.257Z,62.09
2018-08-13T02:46:10.248Z,62.19
2018-08-13T02:47:10.231Z,62.26
2018-08-13T02:48:10.222Z,62.38
2018-08-13T02:49:10.225Z,62.35
2018-08-13T02:50:10.201Z,61.90
2018-08-13T02:51:10.188Z,62.00
2018-08-13T02:52:10.181Z,62.09
2018-08-13T02:53:10.180Z,61.61
2018-08-13T02:54:10.153Z,62.09
2018-08-13T02:55:10.167Z,62.19
2018-08-13T02:56:10.132Z,61.42
2018-08-13T02:57:10.118Z,61.22
2018-08-13T02:58:10.194Z,61.22
2018-08-13T02:59:10.100Z,61.32
2018-08-13T03:00:10.100Z,61.22
2018-08-13T03:01:10.064Z,61.22
2018-08-13T03:02:10.048Z,61.32
2018-08-13T03:03:10.050Z,61.04
2018-08-13T03:04:10.026Z,61.42
2018-08-13T03:05:10.035Z,61.32
2018-08-13T03:06:10.029Z,62.09
2018-08-13T03:07:10.018Z,61.22
2018-08-13T03:08:09.983Z,61.61
2018-08-13T03:09:10.004Z,62.00
2018-08-13T03:10:09.957Z,62.54
2018-08-13T03:11:09.946Z,62.06
2018-08-13T03:12:09.975Z,62.35
2018-08-13T03:13:09.932Z,62.64
2018-08-13T03:14:09.920Z,63.60
2018-08-13T03:15:09.896Z,63.41
2018-08-13T03:16:09.890Z,63.51
2018-08-13T03:17:09.923Z,63.89
2018-08-13T03:18:09.882Z,63.79
2018-08-13T03:19:09.842Z,63.89
2018-08-13T03:20:09.832Z,64.37
2018-08-13T03:21:09.822Z,64.56
2018-08-13T03:22:09.808Z,64.66
2018-08-13T03:23:09.808Z,64.53
2018-08-13T03:24:09.791Z,64.53
2018-08-13T03:25:09.767Z,64.28
2018-08-13T03:26:09.759Z,64.15
2018-08-13T03:27:09.753Z,64.95
2018-08-13T03:28:09.741Z,65.01
2018-08-13T03:29:09.719Z,65.20
2018-08-13T03:30:09.703Z,64.43
2018-08-13T03:31:09.690Z,64.47
2018-08-13T03:32:09.676Z,64.66
2018-08-13T03:33:09.686Z,64.37
2018-08-13T03:34:09.683Z,64.43
2018-08-13T03:35:09.644Z,64.53
2018-08-13T03:36:09.629Z,64.43
2018-08-13T03:37:09.614Z,64.47
2018-08-13T03:38:09.622Z,64.43
2018-08-13T03:39:09.588Z,64.28
2018-08-13T03:40:09.594Z,64.73
2018-08-13T03:41:09.568Z,64.66
2018-08-13T03:42:09.550Z,64.53
2018-08-13T03:43:09.554Z,65.20
2018-08-13T03:44:09.523Z,65.20
2018-08-13T03:45:09.516Z,64.92
2018-08-13T03:46:09.523Z,65.11
2018-08-13T03:47:09.491Z,64.56
2018-08-13T03:48:09.477Z,65.11
2018-08-13T03:49:09.476Z,65.01
2018-08-13T03:50:09.450Z,64.34
2018-08-13T03:51:09.461Z,65.05
2018-08-13T03:52:09.423Z,66.36
2018-08-13T03:53:09.407Z,66.46
2018-08-13T03:54:09.400Z,67.42
2018-08-13T03:55:09.394Z,67.22
2018-08-13T03:56:09.375Z,67.42
2018-08-13T03:57:09.380Z,68.48
2018-08-13T03:58:09.341Z,69.44
2018-08-13T03:59:09.333Z,69.63
2018-08-13T04:00:10.201Z,70.17
2018-08-13T04:01:09.343Z,72.00
2018-08-13T04:02:09.319Z,72.00
2018-08-13T04:03:09.297Z,71.81
2018-08-13T04:04:09.271Z,72.38
2018-08-13T04:05:09.270Z,73.25
2018-08-13T04:06:09.251Z,74.88
2018-08-13T04:07:09.242Z,75.46
2018-08-13T04:08:09.223Z,77.09
2018-08-13T04:09:09.206Z,79.50
2018-08-13T04:10:09.196Z,83.87
2018-08-13T04:11:09.182Z,85.51
2018-08-13T04:12:09.194Z,90.22
2018-08-13T04:13:09.168Z,88.06
2018-08-13T04:14:09.146Z,89.60
2018-08-13T04:15:09.129Z,90.94
2018-08-13T04:16:09.111Z,91.96
2018-08-13T04:17:09.102Z,89.65
2018-08-13T04:18:09.108Z,93.20
2018-08-13T04:19:09.075Z,94.93
2018-08-13T04:20:09.065Z,96.66
2018-08-13T04:21:09.054Z,97.81
2018-08-13T04:22:09.034Z,98.29
2018-08-13T04:23:09.019Z,99.99
2018-08-13T04:24:09.025Z,99.99
2018-08-13T04:25:08.991Z,99.99
2018-08-13T04:26:08.977Z,99.99
2018-08-13T04:27:08.969Z,99.99
2018-08-13T04:28:08.957Z,99.99
2018-08-13T04:29:08.954Z,99.99
2018-08-13T04:30:08.937Z,99.99
2018-08-13T04:31:08.908Z,99.99
2018-08-13T04:32:08.906Z,99.99
2018-08-13T04:33:08.890Z,99.99
2018-08-13T04:34:08.889Z,99.99
2018-08-13T04:35:08.868Z,99.99
2018-08-13T04:36:08.846Z,99.99
2018-08-13T04:37:08.844Z,99.99
2018-08-13T04:38:08.821Z,99.99
2018-08-13T04:39:08.821Z,99.99
2018-08-13T04:40:08.790Z,99.99
2018-08-13T04:41:08.784Z,99.99
2018-08-13T04:42:08.763Z,99.99
2018-08-13T04:43:08.747Z,99.99
2018-08-13T04:44:08.735Z,99.99
2018-08-13T04:45:08.744Z,99.99
2018-08-13T04:46:08.715Z,99.99
2018-08-13T04:47:08.705Z,99.99
2018-08-13T04:48:08.680Z,99.99
2018-08-13T04:49:08.665Z,99.99
2018-08-13T04:50:08.654Z,99.99
2018-08-13T04:51:08.638Z,99.99
2018-08-13T04:52:08.659Z,99.99
2018-08-13T04:53:08.617Z,99.99
2018-08-13T04:54:08.604Z,99.99
2018-08-13T04:55:08.581Z,99.99
2018-08-13T04:56:08.640Z,99.99
2018-08-13T04:57:08.586Z,99.99
2018-08-13T04:58:08.541Z,99.99
2018-08-13T04:59:08.536Z,99.99
2018-08-13T05:00:08.515Z,99.99
2018-08-13T05:01:08.502Z,99.99
2018-08-13T05:02:08.484Z,99.99
2018-08-13T05:03:08.495Z,99.99
2018-08-13T05:04:08.462Z,99.99
2018-08-13T05:05:08.448Z,99.99
2018-08-13T05:06:08.434Z,99.99
2018-08-13T05:07:08.437Z,99.99
2018-08-13T05:08:08.419Z,99.99
2018-08-13T05:09:08.396Z,99.99
2018-08-13T05:10:08.377Z,99.99
2018-08-13T05:11:08.365Z,99.99
2018-08-13T05:12:08.366Z,99.99
2018-08-13T05:13:08.356Z,99.99
2018-08-13T05:14:08.321Z,99.99
2018-08-13T05:15:08.310Z,99.99
2018-08-13T05:16:08.296Z,99.99
2018-08-13T05:17:08.284Z,99.99
2018-08-13T05:18:08.269Z,99.99
2018-08-13T05:19:08.269Z,99.99
2018-08-13T05:20:08.240Z,99.99
2018-08-13T05:21:08.232Z,99.99
2018-08-13T05:22:08.212Z,99.99
2018-08-13T05:23:08.198Z,99.99
2018-08-13T05:24:08.204Z,99.99
2018-08-13T05:25:08.174Z,99.99
2018-08-13T05:26:08.158Z,99.99
2018-08-13T05:27:08.147Z,99.99
2018-08-13T05:28:08.147Z,99.99
2018-08-13T05:29:08.127Z,99.99
2018-08-13T05:30:08.171Z,99.99
2018-08-13T05:31:08.084Z,99.99
2018-08-13T05:32:08.078Z,99.99
2018-08-13T05:33:08.058Z,99.99
2018-08-13T05:34:08.062Z,99.99
2018-08-13T05:35:08.033Z,99.99
2018-08-13T05:36:08.020Z,99.99
2018-08-13T05:37:08.003Z,99.99
2018-08-13T05:38:08.002Z,99.99
2018-08-13T05:39:07.979Z,99.99
2018-08-13T05:40:07.985Z,99.99
2018-08-13T05:41:07.953Z,99.99
2018-08-13T05:42:07.937Z,99.99
2018-08-13T05:43:07.924Z,99.99
2018-08-13T05:44:07.908Z,99.99
2018-08-13T05:45:07.895Z,99.99
2018-08-13T05:46:07.894Z,99.99
2018-08-13T05:47:07.865Z,99.99
2018-08-13T05:48:07.857Z,99.99
2018-08-13T05:49:07.841Z,99.99
2018-08-13T05:50:07.849Z,99.99
2018-08-13T05:51:07.812Z,99.99
2018-08-13T05:52:07.800Z,99.99
2018-08-13T05:53:07.787Z,99.99
2018-08-13T05:54:07.772Z,99.99
2018-08-13T05:55:07.772Z,99.99
2018-08-13T05:56:07.756Z,99.99
2018-08-13T05:57:07.729Z,99.99
2018-08-13T05:58:07.717Z,99.99
2018-08-13T05:59:07.704Z,99.99
2018-08-13T06:00:07.689Z,99.99
2018-08-13T06:01:07.691Z,99.99
2018-08-13T06:02:07.658Z,99.99
2018-08-13T06:03:07.706Z,99.99
2018-08-13T06:04:07.636Z,99.99
2018-08-13T06:05:07.621Z,99.99
2018-08-13T06:06:07.605Z,99.99
2018-08-13T06:07:07.592Z,99.99
2018-08-13T06:08:07.594Z,99.99
2018-08-13T06:09:07.565Z,99.99
2018-08-13T06:10:07.553Z,99.99
2018-08-13T06:11:07.584Z,99.99
2018-08-13T06:12:07.520Z,99.99
2018-08-13T06:13:07.513Z,99.99
2018-08-13T06:14:07.513Z,99.99
2018-08-13T06:15:07.480Z,99.99
2018-08-13T06:16:07.471Z,99.99
2018-08-13T06:17:07.453Z,99.99
2018-08-13T06:18:07.495Z,99.99
2018-08-13T06:19:07.439Z,99.99
2018-08-13T06:20:07.410Z,99.99
2018-08-13T06:21:07.408Z,99.99
2018-08-13T06:22:07.382Z,99.99
2018-08-13T06:23:07.371Z,99.99
2018-08-13T06:24:07.373Z,99.99
2018-08-13T06:25:07.339Z,99.99
2018-08-13T06:26:07.342Z,99.99
2018-08-13T06:27:07.319Z,99.99
2018-08-13T06:28:07.333Z,99.99
2018-08-13T06:29:07.284Z,99.99
2018-08-13T06:30:07.308Z,99.99
2018-08-13T06:31:07.257Z,99.99
2018-08-13T06:32:07.246Z,99.99
2018-08-13T06:33:07.315Z,99.99
2018-08-13T06:34:07.219Z,99.99
2018-08-13T06:35:07.207Z,99.99
2018-08-13T06:36:07.188Z,99.99
2018-08-13T06:37:07.225Z,99.99
2018-08-13T06:38:07.164Z,99.99
2018-08-13T06:39:07.164Z,99.99
2018-08-13T06:40:07.137Z,99.99
2018-08-13T06:41:07.142Z,99.99
2018-08-13T06:42:07.108Z,99.99
2018-08-13T06:43:07.097Z,99.99
2018-08-13T06:44:07.082Z,99.99
2018-08-13T06:45:07.070Z,99.99
2018-08-13T06:46:07.056Z,99.99
2018-08-13T06:47:07.066Z,99.99
2018-08-13T06:48:07.033Z,99.99
2018-08-13T06:49:07.015Z,99.99
2018-08-13T06:50:07.007Z,99.99
2018-08-13T06:51:06.991Z,99.99
2018-08-13T06:52:06.980Z,99.99
2018-08-13T06:53:06.981Z,99.99
2018-08-13T06:54:06.952Z,99.99
2018-08-13T06:55:06.938Z,99.99
2018-08-13T06:56:06.939Z,99.99
2018-08-13T06:57:06.914Z,99.99
2018-08-13T06:58:06.900Z,99.99
2018-08-13T06:59:06.883Z,99.99
2018-08-13T07:00:06.875Z,99.99
2018-08-13T07:01:06.880Z,99.99
2018-08-13T07:02:06.846Z,99.99
2018-08-13T07:03:06.830Z,99.99
2018-08-13T07:04:06.838Z,99.99
2018-08-13T07:05:06.804Z,99.99
2018-08-13T07:06:06.807Z,99.99
2018-08-13T07:07:06.787Z,99.99
2018-08-13T07:08:06.773Z,99.99
2018-08-13T07:09:06.773Z,99.99
2018-08-13T07:10:06.745Z,99.99
2018-08-13T07:11:06.729Z,99.99
2018-08-13T07:12:06.717Z,99.99
2018-08-13T07:13:06.704Z,99.99
2018-08-13T07:14:06.704Z,99.99
2018-08-13T07:15:06.681Z,99.99
2018-08-13T07:16:06.663Z,99.99
2018-08-13T07:17:06.651Z,99.99
2018-08-13T07:18:06.638Z,99.99
2018-08-13T07:19:06.637Z,99.99
2018-08-13T07:20:06.611Z,99.99
2018-08-13T07:21:06.602Z,99.99
2018-08-13T07:22:06.598Z,99.99
2018-08-13T07:23:06.568Z,99.99
2018-08-13T07:24:06.574Z,99.99
2018-08-13T07:25:06.546Z,99.99
2018-08-13T07:26:06.537Z,99.99
2018-08-13T07:27:06.516Z,99.99
2018-08-13T07:28:06.558Z,99.99
2018-08-13T07:29:06.500Z,99.99
2018-08-13T07:30:06.496Z,99.99
2018-08-13T07:31:06.462Z,99.99
2018-08-13T07:32:06.456Z,99.99
2018-08-13T07:33:06.462Z,99.99
2018-08-13T07:34:06.431Z,99.99
2018-08-13T07:35:06.431Z,99.99
2018-08-13T07:36:06.415Z,99.99
2018-08-13T07:37:06.388Z,99.99
2018-08-13T07:38:06.395Z,99.99
2018-08-13T07:39:06.415Z,99.99
2018-08-13T07:40:06.349Z,99.99
2018-08-13T07:41:06.336Z,99.99
2018-08-13T07:42:06.319Z,99.99
2018-08-13T07:43:06.308Z,99.99
2018-08-13T07:44:06.315Z,99.99
2018-08-13T07:45:06.278Z,99.99
2018-08-13T07:46:06.274Z,99.99
2018-08-13T07:47:06.256Z,99.99
2018-08-13T07:48:06.243Z,99.99
2018-08-13T07:49:06.243Z,99.99
2018-08-13T07:50:06.215Z,99.99
2018-08-13T07:51:06.206Z,99.99
2018-08-13T07:52:06.192Z,99.99
2018-08-13T07:53:06.178Z,99.99
2018-08-13T07:54:06.181Z,99.99
2018-08-13T07:55:06.149Z,99.99
2018-08-13T07:56:06.138Z,99.99
2018-08-13T07:57:06.123Z,99.99
2018-08-13T07:58:06.111Z,99.99
2018-08-13T07:59:06.111Z,99.99
2018-08-13T08:00:06.167Z,99.99
2018-08-13T08:01:06.069Z,99.99
2018-08-13T08:02:06.058Z,99.99
2018-08-13T08:03:06.059Z,99.99
2018-08-13T08:04:06.035Z,99.99
2018-08-13T08:05:06.019Z,99.99
2018-08-13T08:06:06.008Z,99.99
2018-08-13T08:07:05.993Z,99.99
2018-08-13T08:08:05.997Z,99.99
2018-08-13T08:09:05.992Z,99.99
2018-08-13T08:10:05.950Z,99.99
2018-08-13T08:11:05.939Z,99.99
2018-08-13T08:12:05.923Z,99.99
2018-08-13T08:13:05.916Z,99.99
2018-08-13T08:14:05.918Z,99.99
2018-08-13T08:15:05.892Z,99.99
2018-08-13T08:16:05.897Z,99.99
2018-08-13T08:17:05.864Z,99.99
2018-08-13T08:18:05.843Z,99.99
2018-08-13T08:19:05.833Z,99.99
2018-08-13T08:20:05.823Z,99.99
2018-08-13T08:21:05.808Z,99.99
2018-08-13T08:22:05.817Z,99.99
2018-08-13T08:23:05.798Z,99.99
2018-08-13T08:24:05.767Z,99.99
2018-08-13T08:25:05.751Z,99.99
2018-08-13T08:26:05.769Z,99.99
2018-08-13T08:27:05.729Z,99.99
2018-08-13T08:28:05.732Z,99.99
2018-08-13T08:29:05.768Z,99.99
2018-08-13T08:30:05.685Z,99.99
2018-08-13T08:31:05.677Z,99.99
2018-08-13T08:32:05.675Z,99.99
2018-08-13T08:33:05.649Z,99.99
2018-08-13T08:34:05.635Z,99.99
2018-08-13T08:35:05.622Z,99.99
2018-08-13T08:36:05.608Z,99.99
2018-08-13T08:37:05.616Z,99.99
2018-08-13T08:38:05.582Z,99.99
2018-08-13T08:39:05.571Z,99.99
2018-08-13T08:40:05.554Z,99.99
2018-08-13T08:41:05.543Z,99.99
2018-08-13T08:42:05.527Z,99.99
2018-08-13T08:43:26.526Z,99.99
2018-08-13T08:44:05.498Z,99.99
2018-08-13T08:45:05.495Z,99.99
2018-08-13T08:46:05.555Z,99.99
2018-08-13T08:47:05.459Z,99.99
2018-08-13T08:48:05.460Z,99.99
2018-08-13T08:49:05.435Z,99.99
2018-08-13T08:50:05.422Z,99.99
2018-08-13T08:51:05.420Z,99.99
2018-08-13T08:52:05.396Z,99.99
2018-08-13T08:53:05.418Z,99.99
2018-08-13T08:54:05.399Z,99.99
2018-08-13T08:55:05.356Z,99.99
2018-08-13T08:56:05.339Z,99.99
2018-08-13T08:57:05.328Z,99.99
2018-08-13T08:58:05.317Z,99.99
2018-08-13T08:59:05.307Z,99.99
2018-08-13T09:00:05.305Z,99.99
2018-08-13T09:01:05.281Z,99.99
2018-08-13T09:02:05.262Z,99.99
2018-08-13T09:03:05.254Z,99.99
2018-08-13T09:04:05.240Z,99.99
2018-08-13T09:05:05.243Z,99.99
2018-08-13T09:06:05.232Z,99.99
2018-08-13T09:07:05.202Z,99.99
2018-08-13T09:08:05.210Z,99.99
2018-08-13T09:09:05.176Z,99.99
2018-08-13T09:10:05.163Z,99.99
2018-08-13T09:11:05.173Z,99.99
2018-08-13T09:12:05.141Z,99.99
2018-08-13T09:13:05.124Z,99.99
2018-08-13T09:14:05.123Z,99.99
2018-08-13T09:15:05.100Z,99.99
2018-08-13T09:16:05.104Z,99.99
2018-08-13T09:17:05.077Z,99.99
2018-08-13T09:18:05.064Z,99.99
2018-08-13T09:19:05.057Z,99.99
2018-08-13T09:20:05.057Z,99.99
2018-08-13T09:21:05.025Z,99.99
2018-08-13T09:22:05.012Z,99.99
2018-08-13T09:23:04.998Z,99.99
2018-08-13T09:24:04.991Z,99.99
2018-08-13T09:25:05.002Z,99.99
2018-08-13T09:26:04.961Z,99.99
2018-08-13T09:27:04.949Z,99.99
2018-08-13T09:28:04.938Z,99.99
2018-08-13T09:29:04.926Z,99.99
2018-08-13T09:30:04.914Z,99.99
2018-08-13T09:31:04.915Z,99.99
2018-08-13T09:32:04.887Z,99.99
2018-08-13T09:33:04.877Z,99.99
2018-08-13T09:34:04.863Z,99.99
2018-08-13T09:35:04.851Z,99.99
2018-08-13T09:36:04.860Z,99.99
2018-08-13T09:37:04.831Z,99.99
2018-08-13T09:38:04.815Z,99.99
2018-08-13T09:39:04.804Z,99.99
2018-08-13T09:40:04.793Z,99.99
2018-08-13T09:41:04.781Z,99.99
2018-08-13T09:42:04.784Z,99.99
2018-08-13T09:43:04.759Z,99.99
2018-08-13T09:44:04.749Z,99.99
2018-08-13T09:45:04.732Z,99.99
2018-08-13T09:46:04.720Z,99.99
2018-08-13T09:47:04.727Z,99.99
2018-08-13T09:48:04.750Z,99.99
2018-08-13T09:49:04.687Z,99.99
2018-08-13T09:50:04.674Z,99.99
2018-08-13T09:51:04.658Z,99.99
2018-08-13T09:52:04.647Z,99.99
2018-08-13T09:53:04.654Z,99.99
2018-08-13T09:54:04.626Z,99.99
2018-08-13T09:55:04.615Z,99.99
2018-08-13T09:56:04.604Z,99.99
2018-08-13T09:57:04.592Z,99.99
2018-08-13T09:58:04.594Z,94.72
2018-08-13T09:59:04.574Z,93.13
2018-08-13T10:00:04.563Z,90.37
2018-08-13T10:01:04.552Z,88.73
2018-08-13T10:02:04.540Z,89.01
2018-08-13T10:03:04.547Z,89.40
2018-08-13T10:04:04.519Z,85.68
2018-08-13T10:05:04.510Z,87.08
2018-08-13T10:06:04.504Z,85.97
2018-08-13T10:07:04.489Z,86.51
2018-08-13T10:08:04.494Z,87.71
2018-08-13T10:09:04.489Z,88.87
2018-08-13T10:10:04.461Z,87.57
2018-08-13T10:11:04.452Z,84.32
2018-08-13T10:12:04.445Z,84.03
2018-08-13T10:13:04.435Z,83.45
2018-08-13T10:14:04.422Z,83.59
2018-08-13T10:15:04.432Z,86.21
2018-08-13T10:16:04.412Z,84.36
2018-08-13T10:17:04.403Z,82.47
2018-08-13T10:18:04.391Z,79.70
2018-08-13T10:19:04.380Z,79.41
2018-08-13T10:20:04.388Z,78.09
2018-08-13T10:21:04.367Z,77.67
2018-08-13T10:22:04.358Z,78.64
2018-08-13T10:23:04.352Z,80.73
2018-08-13T10:24:04.352Z,80.01
2018-08-13T10:25:04.349Z,81.37
2018-08-13T10:26:04.327Z,82.53
2018-08-13T10:27:04.324Z,84.03
2018-08-13T10:28:04.315Z,84.61
2018-08-13T10:29:04.310Z,85.73
2018-08-13T10:30:04.314Z,83.98
2018-08-13T10:31:04.294Z,83.83
2018-08-13T10:32:04.290Z,81.07
2018-08-13T10:33:04.295Z,82.48
2018-08-13T10:34:04.271Z,84.03
2018-08-13T10:35:04.267Z,84.46
2018-08-13T10:36:04.259Z,84.52
2018-08-13T10:37:04.248Z,83.64
2018-08-13T10:38:04.260Z,84.42
2018-08-13T10:39:04.238Z,85.58
2018-08-13T10:40:04.230Z,86.41
2018-08-13T10:41:04.221Z,86.46
2018-08-13T10:42:04.219Z,87.43
2018-08-13T10:43:04.205Z,87.37
2018-08-13T10:44:04.216Z,88.68
2018-08-13T10:45:04.192Z,91.44
2018-08-13T10:46:04.195Z,94.92
2018-08-13T10:47:04.173Z,94.24
2018-08-13T10:48:04.162Z,95.20
2018-08-13T10:49:04.155Z,97.67
2018-08-13T10:50:04.143Z,97.86
2018-08-13T10:51:04.153Z,98.34
2018-08-13T10:52:04.128Z,96.22
2018-08-13T10:53:04.120Z,96.51
2018-08-13T10:54:04.109Z,96.80
2018-08-13T10:55:04.113Z,96.70
2018-08-13T10:56:04.114Z,96.12
2018-08-13T10:57:04.086Z,95.83
2018-08-13T10:58:04.072Z,97.04
2018-08-13T10:59:04.063Z,96.46
2018-08-13T11:00:04.053Z,96.22
2018-08-13T11:01:04.122Z,96.70
2018-08-13T11:02:04.035Z,96.12
2018-08-13T11:03:04.018Z,95.93
2018-08-13T11:04:04.014Z,95.93
2018-08-13T11:05:04.002Z,95.54
2018-08-13T11:06:03.992Z,95.45
2018-08-13T11:07:04.005Z,96.08
2018-08-13T11:08:03.991Z,97.42
2018-08-13T11:09:03.963Z,97.42
2018-08-13T11:10:03.950Z,96.61
2018-08-13T11:11:03.939Z,96.80
2018-08-13T11:12:03.931Z,95.68
2018-08-13T11:13:03.937Z,88.96
2018-08-13T11:14:03.907Z,82.95
2018-08-13T11:15:03.899Z,79.80
2018-08-13T11:16:03.892Z,77.26
2018-08-13T11:17:03.898Z,77.22
2018-08-13T11:18:03.869Z,76.83
2018-08-13T11:19:03.856Z,77.76
2018-08-13T11:20:03.851Z,80.26
2018-08-13T11:21:03.842Z,82.43
2018-08-13T11:22:03.833Z,82.48
2018-08-13T11:23:03.843Z,82.97
2018-08-13T11:24:03.824Z,84.09
2018-08-13T11:25:03.809Z,85.21
2018-08-13T11:26:03.803Z,86.27
2018-08-13T11:27:03.787Z,87.13
2018-08-13T11:28:03.782Z,87.52
2018-08-13T11:29:03.792Z,88.64
2018-08-13T11:30:03.768Z,88.49
2018-08-13T11:31:03.803Z,89.79
2018-08-13T11:32:03.752Z,89.94
2018-08-13T11:33:03.756Z,89.51
2018-08-13T11:34:03.729Z,89.61
2018-08-13T11:35:03.719Z,89.70
2018-08-13T11:36:03.711Z,89.70
2018-08-13T11:37:03.705Z,91.35
2018-08-13T11:38:03.707Z,89.61
2018-08-13T11:39:03.688Z,89.61
2018-08-13T11:40:03.674Z,90.57
2018-08-13T11:41:03.665Z,90.67
2018-08-13T11:42:03.655Z,90.62
2018-08-13T11:43:03.662Z,90.72
2018-08-13T11:44:03.635Z,89.95
2018-08-13T11:45:03.639Z,90.33
2018-08-13T11:46:03.613Z,90.05
2018-08-13T11:47:03.603Z,91.39
2018-08-13T11:48:03.592Z,92.26
2018-08-13T11:49:03.595Z,92.65
2018-08-13T11:50:03.574Z,92.94
2018-08-13T11:51:03.564Z,93.62
2018-08-13T11:52:03.550Z,93.80
2018-08-13T11:53:03.536Z,94.24
2018-08-13T11:54:03.543Z,94.53
2018-08-13T11:55:03.519Z,95.59
2018-08-13T11:56:03.523Z,94.43
2018-08-13T11:57:03.499Z,95.11
2018-08-13T11:58:03.485Z,95.88
2018-08-13T11:59:03.491Z,97.33
2018-08-13T12:00:03.466Z,99.99
2018-08-13T12:01:03.514Z,99.99
2018-08-13T12:02:03.480Z,99.99
2018-08-13T12:03:03.434Z,99.99
2018-08-13T12:04:03.425Z,99.99
2018-08-13T12:05:03.412Z,99.99
2018-08-13T12:06:03.413Z,99.99
2018-08-13T12:07:03.386Z,99.99
2018-08-13T12:08:03.372Z,99.99
2018-08-13T12:09:03.358Z,99.99
2018-08-13T12:10:03.367Z,99.99
2018-08-13T12:11:03.336Z,99.99
2018-08-13T12:12:03.328Z,99.99
2018-08-13T12:13:03.316Z,99.99
2018-08-13T12:14:03.351Z,99.99
2018-08-13T12:15:03.305Z,99.99
2018-08-13T12:16:03.275Z,99.99
2018-08-13T12:17:03.262Z,99.99
2018-08-13T12:18:03.249Z,99.99
2018-08-13T12:19:03.237Z,99.99
2018-08-13T12:20:03.223Z,99.99
2018-08-13T12:21:03.230Z,99.99
2018-08-13T12:22:03.199Z,99.99
2018-08-13T12:23:03.182Z,99.99
2018-08-13T12:24:03.173Z,99.99
2018-08-13T12:25:03.163Z,99.99
2018-08-13T12:26:03.165Z,99.99
2018-08-13T12:27:03.137Z,99.99
2018-08-13T12:28:03.123Z,99.99
2018-08-13T12:29:03.116Z,99.99
2018-08-13T12:30:03.096Z,99.99
2018-08-13T12:31:03.089Z,99.99
2018-08-13T12:32:03.088Z,99.99
2018-08-13T12:33:03.067Z,99.99
2018-08-13T12:34:03.056Z,99.99
2018-08-13T12:35:03.048Z,99.99
2018-08-13T12:36:03.039Z,99.99
2018-08-13T12:37:03.046Z,99.99
2018-08-13T12:38:03.020Z,99.99
2018-08-13T12:39:03.010Z,99.99
2018-08-13T12:40:02.998Z,99.99
2018-08-13T12:41:03.017Z,99.99
2018-08-13T12:42:02.979Z,99.99
2018-08-13T12:43:23.982Z,99.99
2018-08-13T12:44:02.959Z,99.99
2018-08-13T12:45:02.947Z,99.99
2018-08-13T12:46:02.954Z,99.99
2018-08-13T12:47:02.942Z,99.99
2018-08-13T12:48:02.933Z,99.99
2018-08-13T12:49:02.912Z,99.99
2018-08-13T12:50:02.895Z,99.99
2018-08-13T12:51:02.916Z,99.99
2018-08-13T12:52:02.882Z,99.99